sensor_id;sensor_type;location;lat;lon;timestamp;temperature;humidity
10123;DHT22;5101;49.038;8.710;2023-02-15T00:01:33;2.10;99.90
10123;DHT22;5101;49.038;8.710;2023-02-15T00:03:59;2.10;99.90
10123;DHT22;5101;49.038;8.710;2023-02-15T00:06:25;2.10;99.90
10123;DHT22;5101;49.038;8.710;2023-02-15T00:08:50;2.20;99.90
10123;DHT22;5101;49.038;8.710;2023-02-15T00:11:18;2.20;99.90
10123;DHT22;5101;49.038;8.710;2023-02-15T00:14:03;2.20;99.90
10123;DHT22;5101;49.038;8.710;2023-02-15T00:16:28;2.20;99.90
10123;DHT22;5101;49.038;8.710;2023-02-15T00:18:54;2.20;99.90
10123;DHT22;5101;49.038;8.710;2023-02-15T00:21:20;2.20;99.90
10123;DHT22;5101;49.038;8.710;2023-02-15T00:23:45;2.30;99.90
10123;DHT22;5101;49.038;8.710;2023-02-15T00:26:12;2.30;99.90
10123;DHT22;5101;49.038;8.710;2023-02-15T00:28:38;2.30;99.90
10123;DHT22;5101;49.038;8.710;2023-02-15T00:31:09;2.30;99.90
10123;DHT22;5101;49.038;8.710;2023-02-15T00:33:35;2.40;99.90
10123;DHT22;5101;49.038;8.710;2023-02-15T00:36:01;2.40;99.90
10123;DHT22;5101;49.038;8.710;2023-02-15T00:38:28;2.40;99.90
10123;DHT22;5101;49.038;8.710;2023-02-15T00:40:54;2.50;99.90
10123;DHT22;5101;49.038;8.710;2023-02-15T00:43:20;2.40;99.90
10123;DHT22;5101;49.038;8.710;2023-02-15T00:45:46;2.50;99.90
10123;DHT22;5101;49.038;8.710;2023-02-15T00:48:12;2.50;99.90
10123;DHT22;5101;49.038;8.710;2023-02-15T00:50:37;2.50;99.90
10123;DHT22;5101;49.038;8.710;2023-02-15T00:53:03;2.50;99.90
10123;DHT22;5101;49.038;8.710;2023-02-15T00:55:29;2.50;99.90
10123;DHT22;5101;49.038;8.710;2023-02-15T00:57:54;2.50;99.90
10123;DHT22;5101;49.038;8.710;2023-02-15T01:00:20;2.50;99.90
10123;DHT22;5101;49.038;8.710;2023-02-15T01:02:45;2.50;99.90
10123;DHT22;5101;49.038;8.710;2023-02-15T01:05:11;2.60;99.90
10123;DHT22;5101;49.038;8.710;2023-02-15T01:07:36;2.60;99.90
10123;DHT22;5101;49.038;8.710;2023-02-15T01:10:02;2.60;99.90
10123;DHT22;5101;49.038;8.710;2023-02-15T01:12:28;2.60;99.90
10123;DHT22;5101;49.038;8.710;2023-02-15T01:14:53;2.70;99.90
10123;DHT22;5101;49.038;8.710;2023-02-15T01:17:19;2.60;99.90
10123;DHT22;5101;49.038;8.710;2023-02-15T01:19:44;2.50;99.90
10123;DHT22;5101;49.038;8.710;2023-02-15T01:22:10;2.50;99.90
10123;DHT22;5101;49.038;8.710;2023-02-15T01:24:35;2.50;99.90
10123;DHT22;5101;49.038;8.710;2023-02-15T01:27:01;2.40;99.90
10123;DHT22;5101;49.038;8.710;2023-02-15T01:29:27;2.40;99.90
10123;DHT22;5101;49.038;8.710;2023-02-15T01:31:52;2.40;99.90
10123;DHT22;5101;49.038;8.710;2023-02-15T01:34:18;2.40;99.90
10123;DHT22;5101;49.038;8.710;2023-02-15T01:36:43;2.40;99.90
10123;DHT22;5101;49.038;8.710;2023-02-15T01:39:09;2.40;99.90
10123;DHT22;5101;49.038;8.710;2023-02-15T01:41:35;2.40;99.90
10123;DHT22;5101;49.038;8.710;2023-02-15T01:44:02;2.50;99.90
10123;DHT22;5101;49.038;8.710;2023-02-15T01:46:37;2.50;99.90
10123;DHT22;5101;49.038;8.710;2023-02-15T01:49:15;2.50;99.90
10123;DHT22;5101;49.038;8.710;2023-02-15T01:51:42;2.60;99.90
10123;DHT22;5101;49.038;8.710;2023-02-15T01:54:17;2.60;99.90
10123;DHT22;5101;49.038;8.710;2023-02-15T01:56:45;2.60;99.90
10123;DHT22;5101;49.038;8.710;2023-02-15T01:59:19;2.60;99.90
10123;DHT22;5101;49.038;8.710;2023-02-15T02:01:45;2.70;99.90
10123;DHT22;5101;49.038;8.710;2023-02-15T02:04:17;2.70;99.90
10123;DHT22;5101;49.038;8.710;2023-02-15T02:06:46;2.70;99.90
10123;DHT22;5101;49.038;8.710;2023-02-15T02:09:13;2.70;99.90
10123;DHT22;5101;49.038;8.710;2023-02-15T02:11:40;2.70;99.90
10123;DHT22;5101;49.038;8.710;2023-02-15T02:14:07;2.70;99.90
10123;DHT22;5101;49.038;8.710;2023-02-15T02:16:37;2.70;99.90
10123;DHT22;5101;49.038;8.710;2023-02-15T02:19:45;2.70;99.90
10123;DHT22;5101;49.038;8.710;2023-02-15T02:27:56;2.70;99.90
10123;DHT22;5101;49.038;8.710;2023-02-15T02:30:56;2.80;99.90
10123;DHT22;5101;49.038;8.710;2023-02-15T02:36:34;2.70;99.90
10123;DHT22;5101;49.038;8.710;2023-02-15T02:39:24;2.70;99.90
10123;DHT22;5101;49.038;8.710;2023-02-15T02:44:51;2.70;99.90
10123;DHT22;5101;49.038;8.710;2023-02-15T02:47:30;2.60;99.90
10123;DHT22;5101;49.038;8.710;2023-02-15T02:50:03;2.60;99.90
10123;DHT22;5101;49.038;8.710;2023-02-15T02:52:34;2.60;99.90
10123;DHT22;5101;49.038;8.710;2023-02-15T02:55:01;2.60;99.90
10123;DHT22;5101;49.038;8.710;2023-02-15T02:57:27;2.60;99.90
10123;DHT22;5101;49.038;8.710;2023-02-15T02:59:54;2.50;99.90
10123;DHT22;5101;49.038;8.710;2023-02-15T03:02:25;2.40;99.90
10123;DHT22;5101;49.038;8.710;2023-02-15T03:04:56;2.40;99.90
10123;DHT22;5101;49.038;8.710;2023-02-15T03:07:25;2.30;99.90
10123;DHT22;5101;49.038;8.710;2023-02-15T03:09:55;2.30;99.90
10123;DHT22;5101;49.038;8.710;2023-02-15T03:12:26;2.40;99.90
10123;DHT22;5101;49.038;8.710;2023-02-15T03:15:01;2.40;99.90
10123;DHT22;5101;49.038;8.710;2023-02-15T03:17:29;2.50;99.90
10123;DHT22;5101;49.038;8.710;2023-02-15T03:19:59;2.50;99.90
10123;DHT22;5101;49.038;8.710;2023-02-15T03:23:02;2.50;99.90
10123;DHT22;5101;49.038;8.710;2023-02-15T03:25:37;2.40;99.90
10123;DHT22;5101;49.038;8.710;2023-02-15T03:28:15;2.40;99.90
10123;DHT22;5101;49.038;8.710;2023-02-15T03:30:45;2.40;99.90
10123;DHT22;5101;49.038;8.710;2023-02-15T03:33:13;2.40;99.90
10123;DHT22;5101;49.038;8.710;2023-02-15T03:35:53;2.40;99.90
10123;DHT22;5101;49.038;8.710;2023-02-15T03:38:28;2.40;99.90
10123;DHT22;5101;49.038;8.710;2023-02-15T03:40:56;2.50;99.90
10123;DHT22;5101;49.038;8.710;2023-02-15T03:43:47;2.50;99.90
10123;DHT22;5101;49.038;8.710;2023-02-15T03:46:39;2.50;99.90
10123;DHT22;5101;49.038;8.710;2023-02-15T03:49:17;2.50;99.90
10123;DHT22;5101;49.038;8.710;2023-02-15T03:51:47;2.50;99.90
10123;DHT22;5101;49.038;8.710;2023-02-15T03:54:30;2.50;99.90
10123;DHT22;5101;49.038;8.710;2023-02-15T04:00:18;2.30;99.90
10123;DHT22;5101;49.038;8.710;2023-02-15T04:05:42;2.30;99.90
10123;DHT22;5101;49.038;8.710;2023-02-15T04:08:08;2.30;99.90
10123;DHT22;5101;49.038;8.710;2023-02-15T04:10:34;2.30;99.90
10123;DHT22;5101;49.038;8.710;2023-02-15T04:13:22;2.30;99.90
10123;DHT22;5101;49.038;8.710;2023-02-15T04:15:48;2.30;99.90
10123;DHT22;5101;49.038;8.710;2023-02-15T04:18:36;2.40;99.90
10123;DHT22;5101;49.038;8.710;2023-02-15T04:21:21;2.40;99.90
10123;DHT22;5101;49.038;8.710;2023-02-15T04:24:06;2.30;99.90
10123;DHT22;5101;49.038;8.710;2023-02-15T04:26:50;2.20;99.90
10123;DHT22;5101;49.038;8.710;2023-02-15T04:29:19;2.20;99.90
10123;DHT22;5101;49.038;8.710;2023-02-15T04:31:44;2.30;99.90
10123;DHT22;5101;49.038;8.710;2023-02-15T04:34:10;2.30;99.90
10123;DHT22;5101;49.038;8.710;2023-02-15T04:36:37;2.30;99.90
10123;DHT22;5101;49.038;8.710;2023-02-15T04:39:03;2.10;99.90
10123;DHT22;5101;49.038;8.710;2023-02-15T04:41:28;2.40;99.90
10123;DHT22;5101;49.038;8.710;2023-02-15T04:43:54;2.40;99.90
10123;DHT22;5101;49.038;8.710;2023-02-15T04:46:19;2.40;99.90
10123;DHT22;5101;49.038;8.710;2023-02-15T04:48:45;2.40;99.90
10123;DHT22;5101;49.038;8.710;2023-02-15T04:51:10;2.40;99.90
10123;DHT22;5101;49.038;8.710;2023-02-15T04:53:36;2.40;99.90
10123;DHT22;5101;49.038;8.710;2023-02-15T04:56:02;2.40;99.90
10123;DHT22;5101;49.038;8.710;2023-02-15T04:58:27;2.50;99.90
10123;DHT22;5101;49.038;8.710;2023-02-15T05:00:56;2.50;99.90
10123;DHT22;5101;49.038;8.710;2023-02-15T05:03:22;2.30;99.90
10123;DHT22;5101;49.038;8.710;2023-02-15T05:05:48;2.10;99.90
10123;DHT22;5101;49.038;8.710;2023-02-15T05:08:13;2.10;99.90
10123;DHT22;5101;49.038;8.710;2023-02-15T05:10:39;2.10;99.90
10123;DHT22;5101;49.038;8.710;2023-02-15T05:13:04;2.10;99.90
10123;DHT22;5101;49.038;8.710;2023-02-15T05:15:30;2.20;99.90
10123;DHT22;5101;49.038;8.710;2023-02-15T05:17:56;2.20;99.90
10123;DHT22;5101;49.038;8.710;2023-02-15T05:20:21;2.30;99.90
10123;DHT22;5101;49.038;8.710;2023-02-15T05:22:47;2.30;99.90
10123;DHT22;5101;49.038;8.710;2023-02-15T05:25:12;2.40;99.90
10123;DHT22;5101;49.038;8.710;2023-02-15T05:27:56;2.40;99.90
10123;DHT22;5101;49.038;8.710;2023-02-15T05:30:40;2.40;99.90
10123;DHT22;5101;49.038;8.710;2023-02-15T05:33:07;2.40;99.90
10123;DHT22;5101;49.038;8.710;2023-02-15T05:35:33;2.40;99.90
10123;DHT22;5101;49.038;8.710;2023-02-15T05:37:59;2.40;99.90
10123;DHT22;5101;49.038;8.710;2023-02-15T05:40:25;2.40;99.90
10123;DHT22;5101;49.038;8.710;2023-02-15T05:42:50;2.40;99.90
10123;DHT22;5101;49.038;8.710;2023-02-15T05:45:16;2.40;99.90
10123;DHT22;5101;49.038;8.710;2023-02-15T05:47:42;2.40;99.90
10123;DHT22;5101;49.038;8.710;2023-02-15T05:50:08;2.40;99.90
10123;DHT22;5101;49.038;8.710;2023-02-15T05:52:34;2.40;99.90
10123;DHT22;5101;49.038;8.710;2023-02-15T05:55:00;2.40;99.90
10123;DHT22;5101;49.038;8.710;2023-02-15T05:57:27;2.40;99.90
10123;DHT22;5101;49.038;8.710;2023-02-15T05:59:53;2.40;99.90
10123;DHT22;5101;49.038;8.710;2023-02-15T06:02:18;2.40;99.90
10123;DHT22;5101;49.038;8.710;2023-02-15T06:04:44;2.50;99.90
10123;DHT22;5101;49.038;8.710;2023-02-15T06:07:09;2.40;99.90
10123;DHT22;5101;49.038;8.710;2023-02-15T06:09:35;2.50;99.90
10123;DHT22;5101;49.038;8.710;2023-02-15T06:12:00;2.50;99.90
10123;DHT22;5101;49.038;8.710;2023-02-15T06:14:26;2.50;99.90
10123;DHT22;5101;49.038;8.710;2023-02-15T06:16:51;2.50;99.90
10123;DHT22;5101;49.038;8.710;2023-02-15T06:19:17;2.40;99.90
10123;DHT22;5101;49.038;8.710;2023-02-15T06:21:43;2.40;99.90
10123;DHT22;5101;49.038;8.710;2023-02-15T06:24:09;2.40;99.90
10123;DHT22;5101;49.038;8.710;2023-02-15T06:26:34;2.30;99.90
10123;DHT22;5101;49.038;8.710;2023-02-15T06:29:00;2.20;99.90
10123;DHT22;5101;49.038;8.710;2023-02-15T06:31:26;2.20;99.90
10123;DHT22;5101;49.038;8.710;2023-02-15T06:33:51;2.10;99.90
10123;DHT22;5101;49.038;8.710;2023-02-15T06:36:17;2.10;99.90
10123;DHT22;5101;49.038;8.710;2023-02-15T06:38:42;2.20;99.90
10123;DHT22;5101;49.038;8.710;2023-02-15T06:41:08;2.10;99.90
10123;DHT22;5101;49.038;8.710;2023-02-15T06:43:33;2.20;99.90
10123;DHT22;5101;49.038;8.710;2023-02-15T06:45:59;2.20;99.90
10123;DHT22;5101;49.038;8.710;2023-02-15T06:48:25;2.20;99.90
10123;DHT22;5101;49.038;8.710;2023-02-15T06:50:50;2.20;99.90
10123;DHT22;5101;49.038;8.710;2023-02-15T06:53:16;2.20;99.90
10123;DHT22;5101;49.038;8.710;2023-02-15T06:55:41;2.00;99.90
10123;DHT22;5101;49.038;8.710;2023-02-15T06:58:07;2.00;99.90
10123;DHT22;5101;49.038;8.710;2023-02-15T07:00:32;2.00;99.90
10123;DHT22;5101;49.038;8.710;2023-02-15T07:02:58;2.10;99.90
10123;DHT22;5101;49.038;8.710;2023-02-15T07:05:25;2.00;99.90
10123;DHT22;5101;49.038;8.710;2023-02-15T07:07:59;2.10;99.90
10123;DHT22;5101;49.038;8.710;2023-02-15T07:10:25;2.10;99.90
10123;DHT22;5101;49.038;8.710;2023-02-15T07:12:50;2.10;99.90
10123;DHT22;5101;49.038;8.710;2023-02-15T07:15:17;2.10;99.90
10123;DHT22;5101;49.038;8.710;2023-02-15T07:17:44;2.10;99.90
10123;DHT22;5101;49.038;8.710;2023-02-15T07:20:18;2.10;99.90
10123;DHT22;5101;49.038;8.710;2023-02-15T07:22:44;2.20;99.90
10123;DHT22;5101;49.038;8.710;2023-02-15T07:25:11;2.20;99.90
10123;DHT22;5101;49.038;8.710;2023-02-15T07:27:37;2.20;99.90
10123;DHT22;5101;49.038;8.710;2023-02-15T07:30:04;2.20;99.90
10123;DHT22;5101;49.038;8.710;2023-02-15T07:32:31;2.10;99.90
10123;DHT22;5101;49.038;8.710;2023-02-15T07:34:57;2.20;99.90
10123;DHT22;5101;49.038;8.710;2023-02-15T07:37:23;2.20;99.90
10123;DHT22;5101;49.038;8.710;2023-02-15T07:39:49;2.20;99.90
10123;DHT22;5101;49.038;8.710;2023-02-15T07:42:15;2.20;99.90
10123;DHT22;5101;49.038;8.710;2023-02-15T07:44:40;2.30;99.90
10123;DHT22;5101;49.038;8.710;2023-02-15T07:47:06;2.30;99.90
10123;DHT22;5101;49.038;8.710;2023-02-15T07:49:31;2.20;99.90
10123;DHT22;5101;49.038;8.710;2023-02-15T07:51:57;2.20;99.90
10123;DHT22;5101;49.038;8.710;2023-02-15T07:54:22;2.20;99.90
10123;DHT22;5101;49.038;8.710;2023-02-15T07:56:48;2.20;99.90
10123;DHT22;5101;49.038;8.710;2023-02-15T07:59:13;2.20;99.90
10123;DHT22;5101;49.038;8.710;2023-02-15T08:01:39;2.20;99.90
10123;DHT22;5101;49.038;8.710;2023-02-15T08:04:06;2.10;99.90
10123;DHT22;5101;49.038;8.710;2023-02-15T08:06:34;2.10;99.90
10123;DHT22;5101;49.038;8.710;2023-02-15T08:09:02;2.10;99.90
10123;DHT22;5101;49.038;8.710;2023-02-15T08:11:30;2.10;99.90
10123;DHT22;5101;49.038;8.710;2023-02-15T08:16:40;1.90;99.90
10123;DHT22;5101;49.038;8.710;2023-02-15T08:19:14;1.70;99.90
10123;DHT22;5101;49.038;8.710;2023-02-15T08:21:43;1.70;99.90
10123;DHT22;5101;49.038;8.710;2023-02-15T08:24:10;1.70;99.90
10123;DHT22;5101;49.038;8.710;2023-02-15T08:26:37;1.70;99.90
10123;DHT22;5101;49.038;8.710;2023-02-15T08:29:04;1.70;99.90
10123;DHT22;5101;49.038;8.710;2023-02-15T08:31:30;1.80;99.90
10123;DHT22;5101;49.038;8.710;2023-02-15T08:33:56;1.90;99.90
10123;DHT22;5101;49.038;8.710;2023-02-15T08:36:24;1.90;99.90
10123;DHT22;5101;49.038;8.710;2023-02-15T08:38:50;1.90;99.90
10123;DHT22;5101;49.038;8.710;2023-02-15T08:41:24;1.80;99.90
10123;DHT22;5101;49.038;8.710;2023-02-15T08:43:52;1.90;99.90
10123;DHT22;5101;49.038;8.710;2023-02-15T08:46:20;1.90;99.90
10123;DHT22;5101;49.038;8.710;2023-02-15T08:48:46;2.00;99.90
10123;DHT22;5101;49.038;8.710;2023-02-15T08:51:13;1.90;99.90
10123;DHT22;5101;49.038;8.710;2023-02-15T08:53:41;2.00;99.90
10123;DHT22;5101;49.038;8.710;2023-02-15T08:56:08;2.00;99.90
10123;DHT22;5101;49.038;8.710;2023-02-15T08:58:33;2.00;99.90
10123;DHT22;5101;49.038;8.710;2023-02-15T09:00:59;2.00;99.90
10123;DHT22;5101;49.038;8.710;2023-02-15T09:03:27;2.10;99.90
10123;DHT22;5101;49.038;8.710;2023-02-15T09:05:57;2.10;99.90
10123;DHT22;5101;49.038;8.710;2023-02-15T09:08:23;2.20;99.90
10123;DHT22;5101;49.038;8.710;2023-02-15T09:10:48;2.30;99.90
10123;DHT22;5101;49.038;8.710;2023-02-15T09:13:14;2.30;99.90
10123;DHT22;5101;49.038;8.710;2023-02-15T09:15:40;2.40;99.90
10123;DHT22;5101;49.038;8.710;2023-02-15T09:18:06;2.40;99.90
10123;DHT22;5101;49.038;8.710;2023-02-15T09:20:34;2.50;99.90
10123;DHT22;5101;49.038;8.710;2023-02-15T09:23:00;2.50;99.90
10123;DHT22;5101;49.038;8.710;2023-02-15T09:25:26;2.50;99.90
10123;DHT22;5101;49.038;8.710;2023-02-15T09:27:52;2.40;99.90
10123;DHT22;5101;49.038;8.710;2023-02-15T09:30:17;2.40;99.90
10123;DHT22;5101;49.038;8.710;2023-02-15T09:32:43;2.40;99.90
10123;DHT22;5101;49.038;8.710;2023-02-15T09:35:08;2.30;99.90
10123;DHT22;5101;49.038;8.710;2023-02-15T09:37:34;2.30;99.90
10123;DHT22;5101;49.038;8.710;2023-02-15T09:39:59;2.30;99.90
10123;DHT22;5101;49.038;8.710;2023-02-15T09:48:14;2.50;99.90
10123;DHT22;5101;49.038;8.710;2023-02-15T09:51:12;2.60;99.90
10123;DHT22;5101;49.038;8.710;2023-02-15T10:02:38;2.80;99.90
10123;DHT22;5101;49.038;8.710;2023-02-15T10:05:35;2.80;99.90
10123;DHT22;5101;49.038;8.710;2023-02-15T10:17:37;3.00;99.90
10123;DHT22;5101;49.038;8.710;2023-02-15T10:20:10;3.00;99.90
10123;DHT22;5101;49.038;8.710;2023-02-15T10:28:06;3.00;99.90
10123;DHT22;5101;49.038;8.710;2023-02-15T10:30:37;2.90;99.90
10123;DHT22;5101;49.038;8.710;2023-02-15T10:42:02;3.20;99.90
10123;DHT22;5101;49.038;8.710;2023-02-15T10:47:30;3.40;99.90
10123;DHT22;5101;49.038;8.710;2023-02-15T10:50:06;3.40;99.90
10123;DHT22;5101;49.038;8.710;2023-02-15T10:53:05;3.50;99.90
10123;DHT22;5101;49.038;8.710;2023-02-15T10:55:45;3.50;99.90
10123;DHT22;5101;49.038;8.710;2023-02-15T11:03:24;3.90;99.90
10123;DHT22;5101;49.038;8.710;2023-02-15T11:06:00;3.90;99.90
10123;DHT22;5101;49.038;8.710;2023-02-15T11:08:29;3.90;99.90
10123;DHT22;5101;49.038;8.710;2023-02-15T11:11:00;3.90;99.90
10123;DHT22;5101;49.038;8.710;2023-02-15T11:13:29;3.90;99.90
10123;DHT22;5101;49.038;8.710;2023-02-15T11:18:37;3.90;99.90
10123;DHT22;5101;49.038;8.710;2023-02-15T11:23:46;4.00;99.90
10123;DHT22;5101;49.038;8.710;2023-02-15T11:26:15;4.10;99.90
10123;DHT22;5101;49.038;8.710;2023-02-15T11:28:52;4.10;99.90
10123;DHT22;5101;49.038;8.710;2023-02-15T11:31:22;4.00;99.90
10123;DHT22;5101;49.038;8.710;2023-02-15T11:34:01;4.10;99.90
10123;DHT22;5101;49.038;8.710;2023-02-15T11:36:32;4.20;99.90
10123;DHT22;5101;49.038;8.710;2023-02-15T11:39:03;4.10;99.90
10123;DHT22;5101;49.038;8.710;2023-02-15T11:41:37;3.90;99.90
10123;DHT22;5101;49.038;8.710;2023-02-15T11:44:18;3.90;99.90
10123;DHT22;5101;49.038;8.710;2023-02-15T11:46:46;3.90;99.90
10123;DHT22;5101;49.038;8.710;2023-02-15T11:49:30;4.10;99.90
10123;DHT22;5101;49.038;8.710;2023-02-15T11:51:57;4.20;99.90
10123;DHT22;5101;49.038;8.710;2023-02-15T11:54:29;4.40;99.90
10123;DHT22;5101;49.038;8.710;2023-02-15T11:56:59;4.40;99.90
10123;DHT22;5101;49.038;8.710;2023-02-15T11:59:32;4.50;99.90
10123;DHT22;5101;49.038;8.710;2023-02-15T12:02:00;4.60;99.90
10123;DHT22;5101;49.038;8.710;2023-02-15T12:04:34;4.60;99.90
10123;DHT22;5101;49.038;8.710;2023-02-15T12:07:22;4.70;99.90
10123;DHT22;5101;49.038;8.710;2023-02-15T12:12:31;4.90;99.90
10123;DHT22;5101;49.038;8.710;2023-02-15T12:14:59;5.00;99.90
10123;DHT22;5101;49.038;8.710;2023-02-15T12:17:39;5.00;99.90
10123;DHT22;5101;49.038;8.710;2023-02-15T12:20:25;5.00;99.90
10123;DHT22;5101;49.038;8.710;2023-02-15T12:23:12;5.00;99.90
10123;DHT22;5101;49.038;8.710;2023-02-15T12:25:52;5.10;99.90
10123;DHT22;5101;49.038;8.710;2023-02-15T12:28:34;5.10;99.90
10123;DHT22;5101;49.038;8.710;2023-02-15T12:31:02;5.20;99.90
10123;DHT22;5101;49.038;8.710;2023-02-15T12:36:30;5.40;99.90
10123;DHT22;5101;49.038;8.710;2023-02-15T12:41:37;5.30;99.90
10123;DHT22;5101;49.038;8.710;2023-02-15T12:44:17;5.30;99.90
10123;DHT22;5101;49.038;8.710;2023-02-15T12:46:59;5.30;99.90
10123;DHT22;5101;49.038;8.710;2023-02-15T12:49:26;5.40;99.90
10123;DHT22;5101;49.038;8.710;2023-02-15T12:51:55;5.40;99.90
10123;DHT22;5101;49.038;8.710;2023-02-15T12:56:58;5.30;99.90
10123;DHT22;5101;49.038;8.710;2023-02-15T12:59:24;5.30;99.90
10123;DHT22;5101;49.038;8.710;2023-02-15T13:01:52;4.90;99.90
10123;DHT22;5101;49.038;8.710;2023-02-15T13:04:27;4.80;99.90
10123;DHT22;5101;49.038;8.710;2023-02-15T13:06:56;4.90;99.90
10123;DHT22;5101;49.038;8.710;2023-02-15T13:09:37;5.00;99.90
10123;DHT22;5101;49.038;8.710;2023-02-15T13:12:24;5.10;99.90
10123;DHT22;5101;49.038;8.710;2023-02-15T13:14:52;5.10;99.90
10123;DHT22;5101;49.038;8.710;2023-02-15T13:17:40;5.10;99.90
10123;DHT22;5101;49.038;8.710;2023-02-15T13:20:19;5.00;99.90
10123;DHT22;5101;49.038;8.710;2023-02-15T13:22:49;4.90;99.90
10123;DHT22;5101;49.038;8.710;2023-02-15T13:25:21;5.00;99.90
10123;DHT22;5101;49.038;8.710;2023-02-15T13:27:52;5.10;99.90
10123;DHT22;5101;49.038;8.710;2023-02-15T13:31:01;5.30;99.90
10123;DHT22;5101;49.038;8.710;2023-02-15T13:33:28;5.40;99.90
10123;DHT22;5101;49.038;8.710;2023-02-15T13:44:47;5.50;99.90
10123;DHT22;5101;49.038;8.710;2023-02-15T13:47:30;5.60;99.90
10123;DHT22;5101;49.038;8.710;2023-02-15T13:50:28;5.70;99.90
10123;DHT22;5101;49.038;8.710;2023-02-15T13:56:27;6.00;99.90
10123;DHT22;5101;49.038;8.710;2023-02-15T13:59:17;5.80;99.90
10123;DHT22;5101;49.038;8.710;2023-02-15T14:02:03;5.80;99.90
10123;DHT22;5101;49.038;8.710;2023-02-15T14:04:48;5.70;99.90
10123;DHT22;5101;49.038;8.710;2023-02-15T14:07:39;5.90;99.90
10123;DHT22;5101;49.038;8.710;2023-02-15T14:16:15;6.10;99.90
10123;DHT22;5101;49.038;8.710;2023-02-15T14:18:47;6.30;99.90
10123;DHT22;5101;49.038;8.710;2023-02-15T14:21:47;6.30;99.90
10123;DHT22;5101;49.038;8.710;2023-02-15T14:27:21;6.40;99.90
10123;DHT22;5101;49.038;8.710;2023-02-15T14:30:00;6.40;99.90
10123;DHT22;5101;49.038;8.710;2023-02-15T14:32:42;6.50;99.90
10123;DHT22;5101;49.038;8.710;2023-02-15T14:35:17;6.60;99.90
10123;DHT22;5101;49.038;8.710;2023-02-15T14:40:34;6.60;99.90
10123;DHT22;5101;49.038;8.710;2023-02-15T14:46:27;6.70;99.90
10123;DHT22;5101;49.038;8.710;2023-02-15T14:48:57;6.60;99.90
10123;DHT22;5101;49.038;8.710;2023-02-15T15:02:43;6.90;99.90
10123;DHT22;5101;49.038;8.710;2023-02-15T15:05:47;6.90;99.90
10123;DHT22;5101;49.038;8.710;2023-02-15T15:08:03;6.80;99.90
10123;DHT22;5101;49.038;8.710;2023-02-15T15:10:38;6.90;99.90
10123;DHT22;5101;49.038;8.710;2023-02-15T15:13:34;6.90;99.90
10123;DHT22;5101;49.038;8.710;2023-02-15T15:16:24;6.90;99.90
10123;DHT22;5101;49.038;8.710;2023-02-15T15:18:50;7.00;99.90
10123;DHT22;5101;49.038;8.710;2023-02-15T15:21:51;7.00;99.80
10123;DHT22;5101;49.038;8.710;2023-02-15T15:32:45;7.00;99.40
10123;DHT22;5101;49.038;8.710;2023-02-15T15:41:41;7.00;99.30
10123;DHT22;5101;49.038;8.710;2023-02-15T15:50:13;6.90;99.10
10123;DHT22;5101;49.038;8.710;2023-02-15T15:52:41;6.90;99.00
10123;DHT22;5101;49.038;8.710;2023-02-15T15:55:19;6.90;99.00
10123;DHT22;5101;49.038;8.710;2023-02-15T15:57:47;6.80;99.10
10123;DHT22;5101;49.038;8.710;2023-02-15T16:00:44;6.80;99.00
10123;DHT22;5101;49.038;8.710;2023-02-15T16:03:20;6.80;99.10
10123;DHT22;5101;49.038;8.710;2023-02-15T16:05:46;6.80;99.20
10123;DHT22;5101;49.038;8.710;2023-02-15T16:08:13;6.70;99.20
10123;DHT22;5101;49.038;8.710;2023-02-15T16:10:40;6.70;99.30
10123;DHT22;5101;49.038;8.710;2023-02-15T16:13:06;6.70;99.30
10123;DHT22;5101;49.038;8.710;2023-02-15T16:15:46;6.70;99.10
10123;DHT22;5101;49.038;8.710;2023-02-15T16:18:20;6.70;99.10
10123;DHT22;5101;49.038;8.710;2023-02-15T16:20:51;6.70;99.10
10123;DHT22;5101;49.038;8.710;2023-02-15T16:26:12;6.70;98.80
10123;DHT22;5101;49.038;8.710;2023-02-15T16:28:39;6.70;98.70
10123;DHT22;5101;49.038;8.710;2023-02-15T16:31:13;6.70;98.70
10123;DHT22;5101;49.038;8.710;2023-02-15T16:33:40;6.60;98.60
10123;DHT22;5101;49.038;8.710;2023-02-15T16:36:11;6.60;98.60
10123;DHT22;5101;49.038;8.710;2023-02-15T16:41:12;6.60;98.60
10123;DHT22;5101;49.038;8.710;2023-02-15T16:43:40;6.50;98.50
10123;DHT22;5101;49.038;8.710;2023-02-15T16:46:30;6.60;98.80
10123;DHT22;5101;49.038;8.710;2023-02-15T16:48:59;6.40;98.40
10123;DHT22;5101;49.038;8.710;2023-02-15T16:51:29;6.30;98.40
10123;DHT22;5101;49.038;8.710;2023-02-15T16:53:57;6.30;98.50
10123;DHT22;5101;49.038;8.710;2023-02-15T16:56:27;6.20;98.40
10123;DHT22;5101;49.038;8.710;2023-02-15T16:58:55;6.20;98.40
10123;DHT22;5101;49.038;8.710;2023-02-15T17:01:24;6.20;98.40
10123;DHT22;5101;49.038;8.710;2023-02-15T17:07:15;6.00;98.30
10123;DHT22;5101;49.038;8.710;2023-02-15T17:09:56;6.00;98.40
10123;DHT22;5101;49.038;8.710;2023-02-15T17:12:48;5.90;98.60
10123;DHT22;5101;49.038;8.710;2023-02-15T17:15:28;5.80;98.30
10123;DHT22;5101;49.038;8.710;2023-02-15T17:18:00;5.80;98.50
10123;DHT22;5101;49.038;8.710;2023-02-15T17:20:26;5.70;98.50
10123;DHT22;5101;49.038;8.710;2023-02-15T17:22:52;5.60;98.60
10123;DHT22;5101;49.038;8.710;2023-02-15T17:25:21;5.60;98.70
10123;DHT22;5101;49.038;8.710;2023-02-15T17:27:55;5.50;98.70
10123;DHT22;5101;49.038;8.710;2023-02-15T17:30:29;5.40;98.80
10123;DHT22;5101;49.038;8.710;2023-02-15T17:32:59;5.30;99.10
10123;DHT22;5101;49.038;8.710;2023-02-15T17:35:28;5.20;99.10
10123;DHT22;5101;49.038;8.710;2023-02-15T17:38:19;5.40;99.20
10123;DHT22;5101;49.038;8.710;2023-02-15T17:40:45;5.20;99.20
10123;DHT22;5101;49.038;8.710;2023-02-15T17:43:11;5.10;99.10
10123;DHT22;5101;49.038;8.710;2023-02-15T17:45:42;5.10;99.10
10123;DHT22;5101;49.038;8.710;2023-02-15T17:48:17;5.00;99.10
10123;DHT22;5101;49.038;8.710;2023-02-15T17:50:43;5.00;99.10
10123;DHT22;5101;49.038;8.710;2023-02-15T17:53:16;5.00;99.10
10123;DHT22;5101;49.038;8.710;2023-02-15T17:55:43;4.90;99.10
10123;DHT22;5101;49.038;8.710;2023-02-15T17:58:17;4.90;99.10
10123;DHT22;5101;49.038;8.710;2023-02-15T18:00:49;4.90;99.20
10123;DHT22;5101;49.038;8.710;2023-02-15T18:03:40;4.80;99.10
10123;DHT22;5101;49.038;8.710;2023-02-15T18:06:25;4.80;99.10
10123;DHT22;5101;49.038;8.710;2023-02-15T18:09:11;4.70;99.20
10123;DHT22;5101;49.038;8.710;2023-02-15T18:11:57;4.60;99.20
10123;DHT22;5101;49.038;8.710;2023-02-15T18:14:22;4.50;99.30
10123;DHT22;5101;49.038;8.710;2023-02-15T18:16:48;4.50;99.40
10123;DHT22;5101;49.038;8.710;2023-02-15T18:19:24;4.50;99.50
10123;DHT22;5101;49.038;8.710;2023-02-15T18:21:51;4.50;99.50
10123;DHT22;5101;49.038;8.710;2023-02-15T18:24:25;4.40;99.50
10123;DHT22;5101;49.038;8.710;2023-02-15T18:26:54;4.40;99.50
10123;DHT22;5101;49.038;8.710;2023-02-15T18:29:19;4.30;99.60
10123;DHT22;5101;49.038;8.710;2023-02-15T18:31:48;4.30;99.60
10123;DHT22;5101;49.038;8.710;2023-02-15T18:34:22;4.20;99.70
10123;DHT22;5101;49.038;8.710;2023-02-15T18:36:49;4.10;99.90
10123;DHT22;5101;49.038;8.710;2023-02-15T18:39:30;4.10;99.90
10123;DHT22;5101;49.038;8.710;2023-02-15T18:41:58;4.10;99.90
10123;DHT22;5101;49.038;8.710;2023-02-15T18:44:25;4.00;99.90
10123;DHT22;5101;49.038;8.710;2023-02-15T18:46:50;3.90;99.90
10123;DHT22;5101;49.038;8.710;2023-02-15T18:49:16;3.90;99.90
10123;DHT22;5101;49.038;8.710;2023-02-15T18:51:41;3.90;99.90
10123;DHT22;5101;49.038;8.710;2023-02-15T18:54:19;3.90;99.90
10123;DHT22;5101;49.038;8.710;2023-02-15T18:56:52;3.80;99.90
10123;DHT22;5101;49.038;8.710;2023-02-15T18:59:18;3.80;99.90